Gracewood, GA

1:55 PM EDT on July 29, 2016 (GMT -0400)
Augusta Regional At Bush | | Change Station

Elev 148 ft 33.36 °N, 81.96 °W | Updated 2 minutes ago

Mostly Cloudy
Mostly Cloudy
94 °F
Feels Like 98 °F
N
13
Wind Variable Wind from West
Gusts 22 mph

Today
High -- | Low -- °F
--% Chance of Precip.
Yesterday
High -- | Low -- °F
Precip. -- in
Pressure 29.95 in
Visibility 10.0 miles
Clouds Mostly Cloudy 6500 ft
Heat Index 98 °F
Dew Point 67 °F
Humidity 41%
Rainfall 0.00 in
Snow Depth Not available.
6:38 AM 8:29 PM
Waning Crescent, 20% visible
METAR KAGS 291753Z 27011G19KT 10SM BKN065 34/19 A2996 RMK AO2 SLP142 T03440194 10361 20261 58010
Pressure 29.95 in
Visibility 10.0 miles
Clouds Mostly Cloudy 6500 ft
Heat Index 98 °F
Dew Point 67 °F
Humidity 41%
Rainfall 0.00 in
Snow Depth Not available.
6:38 AM 8:29 PM
Waning Crescent, 20% visible
METAR KAGS 291753Z 27011G19KT 10SM BKN065 34/19 A2996 RMK AO2 SLP142 T03440194 10361 20261 58010

10-Day Weather Forecast

Almanac

Astronomy

Jul. 29, 2016 Rise Set
Actual Time
Civil Twilight
Nautical Twilight
Astronomical Twilight
Moon
Length of Visible Light
Length of Day
Tomorrow will be .
, % of the Moon is Illuminated

Today's Extremes

State Highs State Lows

Community

WunderPhotos

Upload Photos

1,928,382 photos uploaded!

WunderBlog® & News

Nearby

Air Quality

  Air Quality AQ Index Pollutant
Not available.

Snow Depth

Station Depth Elevation

Earthquake Activity

City Distance Mag. Time & Date
Minimum magnitude displayed is 2.5.

Coastal Water Temperatures

Place Temperature

Stations

Nearby Weather Stations

Station Location Temp. Windchill Dew Point Humidity Wind Precip. Elev Updated Type
                   

Watches & Warnings

There are currently no watches in effect.